DAL7755 KLAX-KMRY
Flight info
| Callsign | DAL7755 |
|---|---|
| Flight time | 0h 54m |
| Altitude | 32000 |
| Route | SUMMR2 SCTRR WIGGL |
| Aircraft | A320/M-SDE3FGHIRWY/LB1 |
Departure
| Time | 2026-05-06 03:33 |
|---|---|
| Airport | Los Angeles International Airport (KLAX) |
Arrival
| Time | 2026-05-06 04:28 |
|---|---|
| Airport | Monterey Regional Airport (KMRY) |
| Time | Latitude | Longitude | Altitude | Speed | Heading |
|---|---|---|---|---|---|
| 2026-05-06 03:07 | 33.94006 | -118.40184 | 75 ft | 0 kts | 355° |
| 2026-05-06 03:15 | 33.93996 | -118.40183 | 94 ft | 4 kts | 357° |
| 2026-05-06 03:15 | 33.93970 | -118.40182 | 93 ft | 4 kts | 11° |
| 2026-05-06 03:15 | 33.93947 | -118.40194 | 94 ft | 4 kts | 53° |
| 2026-05-06 03:16 | 33.93940 | -118.40212 | 92 ft | 1 kts | 83° |
| 2026-05-06 03:16 | 33.93940 | -118.40215 | 92 ft | 0 kts | 83° |
| 2026-05-06 03:23 | 33.93942 | -118.40193 | 97 ft | 13 kts | 83° |
| 2026-05-06 03:24 | 33.93952 | -118.40107 | 94 ft | 9 kts | 78° |
| 2026-05-06 03:24 | 33.93921 | -118.40068 | 95 ft | 6 kts | 217° |
| 2026-05-06 03:24 | 33.93906 | -118.40113 | 95 ft | 9 kts | 259° |
| 2026-05-06 03:24 | 33.93892 | -118.40239 | 94 ft | 14 kts | 263° |
| 2026-05-06 03:25 | 33.93845 | -118.40331 | 96 ft | 16 kts | 252° |
| 2026-05-06 03:25 | 33.93829 | -118.40483 | 96 ft | 20 kts | 263° |
| 2026-05-06 03:25 | 33.93813 | -118.40659 | 94 ft | 22 kts | 264° |
| 2026-05-06 03:25 | 33.93794 | -118.40853 | 95 ft | 24 kts | 261° |
| 2026-05-06 03:26 | 33.93772 | -118.41047 | 93 ft | 19 kts | 261° |
| 2026-05-06 03:26 | 33.93770 | -118.41117 | 94 ft | 7 kts | 285° |
| 2026-05-06 03:26 | 33.93821 | -118.41159 | 95 ft | 16 kts | 343° |
| 2026-05-06 03:26 | 33.93916 | -118.41169 | 93 ft | 0 kts | 354° |
| 2026-05-06 03:28 | 33.93969 | -118.41176 | 95 ft | 19 kts | 354° |
| 2026-05-06 03:28 | 33.94110 | -118.41198 | 94 ft | 17 kts | 352° |
| 2026-05-06 03:28 | 33.94239 | -118.41215 | 95 ft | 20 kts | 353° |
| 2026-05-06 03:29 | 33.94377 | -118.41239 | 93 ft | 21 kts | 354° |
| 2026-05-06 03:29 | 33.94520 | -118.41257 | 93 ft | 18 kts | 353° |
| 2026-05-06 03:29 | 33.94541 | -118.41261 | 94 ft | 0 kts | 352° |
| 2026-05-06 03:29 | 33.94576 | -118.41266 | 93 ft | 9 kts | 352° |
| 2026-05-06 03:30 | 33.94612 | -118.41272 | 94 ft | 6 kts | 352° |
| 2026-05-06 03:30 | 33.94723 | -118.41290 | 93 ft | 20 kts | 353° |
| 2026-05-06 03:30 | 33.94802 | -118.41206 | 94 ft | 15 kts | 85° |
| 2026-05-06 03:30 | 33.94815 | -118.41069 | 95 ft | 20 kts | 84° |
| 2026-05-06 03:31 | 33.94833 | -118.40890 | 95 ft | 24 kts | 83° |
| 2026-05-06 03:31 | 33.94855 | -118.40675 | 94 ft | 28 kts | 82° |
| 2026-05-06 03:31 | 33.94879 | -118.40435 | 94 ft | 30 kts | 84° |
| 2026-05-06 03:31 | 33.94902 | -118.40196 | 95 ft | 26 kts | 83° |
| 2026-05-06 03:32 | 33.94927 | -118.39979 | 93 ft | 23 kts | 78° |
| 2026-05-06 03:32 | 33.95022 | -118.39918 | 93 ft | 12 kts | 332° |
| 2026-05-06 03:32 | 33.95032 | -118.40038 | 94 ft | 32 kts | 263° |
| 2026-05-06 03:32 | 33.94964 | -118.40713 | 99 ft | 128 kts | 263° |
| 2026-05-06 03:33 | 33.94842 | -118.42029 | 416 ft | 178 kts | 264° |
| 2026-05-06 03:33 | 33.94696 | -118.43624 | 1240 ft | 203 kts | 265° |
| 2026-05-06 03:33 | 33.94525 | -118.45418 | 1979 ft | 227 kts | 264° |
| 2026-05-06 03:33 | 33.94344 | -118.47395 | 2712 ft | 245 kts | 266° |
| 2026-05-06 03:34 | 33.94241 | -118.49484 | 3653 ft | 254 kts | 268° |
| 2026-05-06 03:34 | 33.94159 | -118.51639 | 4558 ft | 262 kts | 266° |
| 2026-05-06 03:34 | 33.94028 | -118.53836 | 5031 ft | 262 kts | 265° |
| 2026-05-06 03:34 | 33.93861 | -118.55988 | 5988 ft | 260 kts | 265° |
| 2026-05-06 03:35 | 33.93663 | -118.58074 | 7410 ft | 239 kts | 264° |
| 2026-05-06 03:35 | 33.93446 | -118.59908 | 8960 ft | 214 kts | 264° |
| 2026-05-06 03:35 | 33.93172 | -118.61937 | 7988 ft | 271 kts | 263° |
| 2026-05-06 03:35 | 33.92860 | -118.64144 | 7879 ft | 273 kts | 264° |
| 2026-05-06 03:36 | 33.92682 | -118.66448 | 7883 ft | 279 kts | 269° |
| 2026-05-06 03:36 | 33.92588 | -118.68813 | 8080 ft | 290 kts | 269° |
| 2026-05-06 03:36 | 33.92498 | -118.71240 | 9087 ft | 291 kts | 269° |
| 2026-05-06 03:36 | 33.92380 | -118.73690 | 10021 ft | 296 kts | 269° |
| 2026-05-06 03:37 | 33.92231 | -118.76238 | 10488 ft | 317 kts | 268° |
| 2026-05-06 03:37 | 33.92046 | -118.78962 | 11018 ft | 332 kts | 267° |
| 2026-05-06 03:37 | 33.91836 | -118.81758 | 11705 ft | 339 kts | 266° |
| 2026-05-06 03:37 | 33.91743 | -118.84592 | 11943 ft | 339 kts | 274° |
| 2026-05-06 03:38 | 33.91897 | -118.87405 | 12396 ft | 336 kts | 278° |
| 2026-05-06 03:38 | 33.92156 | -118.90188 | 13368 ft | 336 kts | 276° |
| 2026-05-06 03:38 | 33.92284 | -118.93050 | 13429 ft | 344 kts | 273° |
| 2026-05-06 03:38 | 33.92299 | -118.94161 | 13439 ft | 344 kts | 272° |
| 2026-05-06 03:39 | 33.92303 | -118.94761 | 13446 ft | 344 kts | 272° |
| 2026-05-06 03:39 | 33.92297 | -118.97649 | 13445 ft | 345 kts | 272° |
| 2026-05-06 03:40 | 33.92475 | -119.00519 | 13442 ft | 343 kts | 282° |
| 2026-05-06 03:40 | 33.93155 | -119.03256 | 13450 ft | 340 kts | 296° |
| 2026-05-06 03:40 | 33.94299 | -119.05734 | 13450 ft | 338 kts | 304° |
| 2026-05-06 03:40 | 33.95552 | -119.08134 | 13442 ft | 338 kts | 304° |
| 2026-05-06 03:41 | 33.96804 | -119.10538 | 13448 ft | 339 kts | 304° |
| 2026-05-06 03:41 | 33.98055 | -119.12942 | 13448 ft | 339 kts | 304° |
| 2026-05-06 03:41 | 33.99302 | -119.15346 | 13446 ft | 339 kts | 304° |
| 2026-05-06 03:41 | 34.00618 | -119.17693 | 13448 ft | 337 kts | 311° |
| 2026-05-06 03:42 | 34.02284 | -119.19690 | 13808 ft | 340 kts | 324° |
| 2026-05-06 03:42 | 34.04211 | -119.21357 | 14601 ft | 342 kts | 327° |
| 2026-05-06 03:42 | 34.06160 | -119.23028 | 15354 ft | 346 kts | 327° |
| 2026-05-06 03:42 | 34.08126 | -119.24724 | 16089 ft | 349 kts | 327° |
| 2026-05-06 03:43 | 34.10105 | -119.26436 | 16864 ft | 351 kts | 328° |
| 2026-05-06 03:43 | 34.12092 | -119.28156 | 17617 ft | 353 kts | 328° |
| 2026-05-06 03:43 | 34.14100 | -119.29891 | 18337 ft | 357 kts | 328° |
| 2026-05-06 03:43 | 34.16130 | -119.31639 | 18956 ft | 360 kts | 328° |
| 2026-05-06 03:44 | 34.18179 | -119.33402 | 19580 ft | 363 kts | 329° |
| 2026-05-06 03:44 | 34.20244 | -119.35183 | 20193 ft | 367 kts | 329° |
| 2026-05-06 03:44 | 34.22330 | -119.36984 | 20794 ft | 370 kts | 329° |
| 2026-05-06 03:44 | 34.24434 | -119.38798 | 21409 ft | 373 kts | 330° |
| 2026-05-06 03:45 | 34.26559 | -119.40629 | 22031 ft | 377 kts | 330° |
| 2026-05-06 03:45 | 34.28698 | -119.42478 | 22646 ft | 380 kts | 330° |
| 2026-05-06 03:45 | 34.30855 | -119.44347 | 23265 ft | 383 kts | 330° |
| 2026-05-06 03:45 | 34.33032 | -119.46232 | 23829 ft | 386 kts | 330° |
| 2026-05-06 03:46 | 34.35225 | -119.48134 | 24324 ft | 389 kts | 331° |
| 2026-05-06 03:46 | 34.37435 | -119.50051 | 24801 ft | 393 kts | 331° |
| 2026-05-06 03:46 | 34.39664 | -119.51983 | 25257 ft | 396 kts | 332° |
| 2026-05-06 03:46 | 34.41905 | -119.53936 | 25729 ft | 399 kts | 331° |
| 2026-05-06 03:47 | 34.44129 | -119.55956 | 26191 ft | 401 kts | 330° |
| 2026-05-06 03:47 | 34.46344 | -119.58038 | 26651 ft | 405 kts | 330° |
| 2026-05-06 03:47 | 34.48564 | -119.60161 | 27122 ft | 408 kts | 330° |
| 2026-05-06 03:47 | 34.50796 | -119.62306 | 27556 ft | 411 kts | 330° |
| 2026-05-06 03:48 | 34.53050 | -119.64468 | 27933 ft | 415 kts | 330° |
| 2026-05-06 03:48 | 34.55325 | -119.66636 | 28027 ft | 415 kts | 330° |
| 2026-05-06 03:48 | 34.59871 | -119.70942 | 28037 ft | 414 kts | 331° |
| 2026-05-06 03:49 | 34.64420 | -119.75239 | 28054 ft | 413 kts | 330° |
| 2026-05-06 03:49 | 34.68958 | -119.79534 | 28040 ft | 414 kts | 331° |
| 2026-05-06 03:50 | 34.73499 | -119.83844 | 28027 ft | 413 kts | 330° |
| 2026-05-06 03:50 | 34.78029 | -119.88146 | 28057 ft | 413 kts | 331° |
| 2026-05-06 03:51 | 34.82555 | -119.92450 | 28063 ft | 413 kts | 330° |
| 2026-05-06 03:51 | 34.87078 | -119.96765 | 28075 ft | 413 kts | 331° |
| 2026-05-06 03:52 | 34.91603 | -120.01083 | 28084 ft | 413 kts | 331° |
| 2026-05-06 03:52 | 34.96096 | -120.05379 | 28079 ft | 414 kts | 330° |
| 2026-05-06 03:53 | 35.00633 | -120.09725 | 28084 ft | 415 kts | 330° |
| 2026-05-06 03:53 | 35.05173 | -120.14081 | 28088 ft | 414 kts | 330° |
| 2026-05-06 03:54 | 35.09700 | -120.18432 | 28092 ft | 414 kts | 330° |
| 2026-05-06 03:54 | 35.14225 | -120.22781 | 28093 ft | 414 kts | 330° |
| 2026-05-06 03:55 | 35.18754 | -120.27116 | 28090 ft | 413 kts | 331° |
| 2026-05-06 03:55 | 35.23345 | -120.31329 | 28088 ft | 412 kts | 332° |
| 2026-05-06 03:56 | 35.27961 | -120.35495 | 28086 ft | 412 kts | 332° |
| 2026-05-06 03:56 | 35.32548 | -120.39677 | 28081 ft | 411 kts | 331° |
| 2026-05-06 03:57 | 35.37115 | -120.43868 | 28081 ft | 410 kts | 330° |
| 2026-05-06 03:57 | 35.41678 | -120.48061 | 28088 ft | 410 kts | 331° |
| 2026-05-06 03:58 | 35.46243 | -120.52255 | 28083 ft | 410 kts | 330° |
| 2026-05-06 03:58 | 35.50802 | -120.56454 | 28097 ft | 410 kts | 330° |
| 2026-05-06 03:59 | 35.55368 | -120.60643 | 28099 ft | 409 kts | 331° |
| 2026-05-06 03:59 | 35.59978 | -120.64746 | 28101 ft | 408 kts | 332° |
| 2026-05-06 04:00 | 35.64638 | -120.68724 | 28093 ft | 408 kts | 333° |
| 2026-05-06 04:00 | 35.69283 | -120.72673 | 28128 ft | 409 kts | 332° |
| 2026-05-06 04:01 | 35.73951 | -120.76686 | 28122 ft | 409 kts | 332° |
| 2026-05-06 04:01 | 35.78613 | -120.80721 | 28115 ft | 410 kts | 332° |
| 2026-05-06 04:02 | 35.83273 | -120.84752 | 28110 ft | 409 kts | 332° |
| 2026-05-06 04:02 | 35.87840 | -120.88715 | 27999 ft | 388 kts | 332° |
| 2026-05-06 04:03 | 35.90006 | -120.90601 | 27856 ft | 374 kts | 332° |
| 2026-05-06 04:03 | 35.92103 | -120.92429 | 27396 ft | 367 kts | 333° |
| 2026-05-06 04:03 | 35.94178 | -120.94227 | 26986 ft | 362 kts | 333° |
| 2026-05-06 04:03 | 35.96233 | -120.96006 | 26515 ft | 359 kts | 332° |
| 2026-05-06 04:04 | 35.98273 | -120.97770 | 26065 ft | 357 kts | 332° |
| 2026-05-06 04:04 | 36.00299 | -120.99521 | 25615 ft | 354 kts | 332° |
| 2026-05-06 04:04 | 36.02310 | -121.01266 | 25171 ft | 352 kts | 332° |
| 2026-05-06 04:04 | 36.04311 | -121.03002 | 24735 ft | 350 kts | 332° |
| 2026-05-06 04:05 | 36.06299 | -121.04728 | 24298 ft | 348 kts | 332° |
| 2026-05-06 04:05 | 36.08275 | -121.06448 | 23874 ft | 347 kts | 332° |
| 2026-05-06 04:05 | 36.10237 | -121.08172 | 23410 ft | 346 kts | 329° |
| 2026-05-06 04:05 | 36.12070 | -121.10114 | 22945 ft | 347 kts | 325° |
| 2026-05-06 04:06 | 36.13853 | -121.12108 | 22587 ft | 342 kts | 324° |
| 2026-05-06 04:06 | 36.15573 | -121.14075 | 22447 ft | 331 kts | 324° |
| 2026-05-06 04:06 | 36.17229 | -121.15985 | 22325 ft | 320 kts | 324° |
| 2026-05-06 04:06 | 36.18835 | -121.17836 | 22186 ft | 310 kts | 324° |
| 2026-05-06 04:07 | 36.20394 | -121.19621 | 22059 ft | 300 kts | 324° |
| 2026-05-06 04:07 | 36.21909 | -121.21345 | 21932 ft | 291 kts | 325° |
| 2026-05-06 04:07 | 36.23372 | -121.23010 | 21793 ft | 281 kts | 325° |
| 2026-05-06 04:07 | 36.24780 | -121.24610 | 21541 ft | 277 kts | 324° |
| 2026-05-06 04:08 | 36.26191 | -121.26208 | 21255 ft | 274 kts | 324° |
| 2026-05-06 04:08 | 36.27589 | -121.27795 | 20969 ft | 272 kts | 324° |
| 2026-05-06 04:08 | 36.29014 | -121.29404 | 20304 ft | 285 kts | 324° |
| 2026-05-06 04:08 | 36.30518 | -121.31096 | 19566 ft | 299 kts | 323° |
| 2026-05-06 04:09 | 36.32086 | -121.32892 | 18809 ft | 315 kts | 319° |
| 2026-05-06 04:09 | 36.33324 | -121.35235 | 18003 ft | 339 kts | 296° |
| 2026-05-06 04:09 | 36.33782 | -121.38181 | 17172 ft | 361 kts | 274° |
| 2026-05-06 04:09 | 36.33462 | -121.41332 | 16359 ft | 375 kts | 263° |
| 2026-05-06 04:10 | 36.32952 | -121.44537 | 15559 ft | 382 kts | 262° |
| 2026-05-06 04:10 | 36.32431 | -121.47790 | 14788 ft | 388 kts | 262° |
| 2026-05-06 04:10 | 36.31903 | -121.51093 | 14028 ft | 393 kts | 262° |
| 2026-05-06 04:10 | 36.31400 | -121.54443 | 13191 ft | 396 kts | 266° |
| 2026-05-06 04:11 | 36.31504 | -121.57808 | 12363 ft | 389 kts | 287° |
| 2026-05-06 04:11 | 36.32485 | -121.60856 | 11556 ft | 376 kts | 306° |
| 2026-05-06 04:11 | 36.34176 | -121.63253 | 10789 ft | 367 kts | 321° |
| 2026-05-06 04:11 | 36.36082 | -121.65357 | 10012 ft | 366 kts | 322° |
| 2026-05-06 04:12 | 36.37999 | -121.67440 | 9184 ft | 366 kts | 322° |
| 2026-05-06 04:12 | 36.39919 | -121.69494 | 8408 ft | 362 kts | 322° |
| 2026-05-06 04:12 | 36.41802 | -121.71474 | 8116 ft | 346 kts | 322° |
| 2026-05-06 04:12 | 36.43594 | -121.73353 | 7982 ft | 328 kts | 322° |
| 2026-05-06 04:13 | 36.45277 | -121.75124 | 7997 ft | 307 kts | 322° |
| 2026-05-06 04:13 | 36.46850 | -121.76790 | 8005 ft | 288 kts | 322° |
| 2026-05-06 04:13 | 36.48328 | -121.78362 | 8006 ft | 271 kts | 322° |
| 2026-05-06 04:13 | 36.49711 | -121.79840 | 8008 ft | 254 kts | 322° |
| 2026-05-06 04:14 | 36.51000 | -121.81239 | 8004 ft | 238 kts | 322° |
| 2026-05-06 04:14 | 36.52198 | -121.82554 | 8005 ft | 223 kts | 322° |
| 2026-05-06 04:14 | 36.53357 | -121.83803 | 8006 ft | 218 kts | 328° |
| 2026-05-06 04:14 | 36.54726 | -121.84443 | 8014 ft | 210 kts | 1° |
| 2026-05-06 04:15 | 36.56101 | -121.83979 | 8009 ft | 207 kts | 33° |
| 2026-05-06 04:15 | 36.57230 | -121.82840 | 8007 ft | 210 kts | 41° |
| 2026-05-06 04:15 | 36.58293 | -121.81589 | 8008 ft | 211 kts | 43° |
| 2026-05-06 04:15 | 36.59356 | -121.80317 | 8009 ft | 212 kts | 42° |
| 2026-05-06 04:16 | 36.60421 | -121.79045 | 8013 ft | 212 kts | 43° |
| 2026-05-06 04:16 | 36.61491 | -121.77777 | 8012 ft | 212 kts | 43° |
| 2026-05-06 04:16 | 36.62562 | -121.76512 | 8002 ft | 212 kts | 43° |
| 2026-05-06 04:16 | 36.63631 | -121.75247 | 8001 ft | 212 kts | 42° |
| 2026-05-06 04:17 | 36.64701 | -121.73981 | 8001 ft | 212 kts | 42° |
| 2026-05-06 04:17 | 36.65772 | -121.72715 | 8001 ft | 213 kts | 42° |
| 2026-05-06 04:17 | 36.66843 | -121.71447 | 8002 ft | 212 kts | 42° |
| 2026-05-06 04:17 | 36.67913 | -121.70179 | 7999 ft | 212 kts | 42° |
| 2026-05-06 04:18 | 36.68982 | -121.68911 | 8001 ft | 212 kts | 42° |
| 2026-05-06 04:18 | 36.70051 | -121.67641 | 8002 ft | 212 kts | 42° |
| 2026-05-06 04:18 | 36.71121 | -121.66370 | 8001 ft | 212 kts | 42° |
| 2026-05-06 04:18 | 36.72107 | -121.65005 | 7995 ft | 214 kts | 60° |
| 2026-05-06 04:19 | 36.72415 | -121.63200 | 7999 ft | 220 kts | 94° |
| 2026-05-06 04:19 | 36.71828 | -121.61431 | 7997 ft | 229 kts | 127° |
| 2026-05-06 04:19 | 36.70564 | -121.60216 | 7735 ft | 233 kts | 149° |
| 2026-05-06 04:19 | 36.69114 | -121.59312 | 7412 ft | 233 kts | 152° |
| 2026-05-06 04:20 | 36.67651 | -121.58453 | 7125 ft | 231 kts | 152° |
| 2026-05-06 04:20 | 36.66200 | -121.57602 | 6828 ft | 230 kts | 152° |
| 2026-05-06 04:20 | 36.64765 | -121.56752 | 6553 ft | 227 kts | 152° |
| 2026-05-06 04:20 | 36.63343 | -121.55908 | 6249 ft | 226 kts | 152° |
| 2026-05-06 04:21 | 36.61939 | -121.55069 | 6100 ft | 224 kts | 153° |
| 2026-05-06 04:21 | 36.60508 | -121.54303 | 6094 ft | 226 kts | 166° |
| 2026-05-06 04:21 | 36.58940 | -121.54311 | 6102 ft | 228 kts | 188° |
| 2026-05-06 04:21 | 36.57378 | -121.54696 | 6104 ft | 229 kts | 192° |
| 2026-05-06 04:22 | 36.55822 | -121.55133 | 6105 ft | 229 kts | 192° |
| 2026-05-06 04:22 | 36.54269 | -121.55572 | 6105 ft | 229 kts | 192° |
| 2026-05-06 04:22 | 36.52735 | -121.56008 | 6100 ft | 229 kts | 193° |
| 2026-05-06 04:23 | 36.49658 | -121.56884 | 5544 ft | 225 kts | 192° |
| 2026-05-06 04:23 | 36.48217 | -121.57596 | 5230 ft | 224 kts | 219° |
| 2026-05-06 04:23 | 36.47325 | -121.59116 | 4934 ft | 218 kts | 255° |
| 2026-05-06 04:23 | 36.47284 | -121.60941 | 4659 ft | 210 kts | 285° |
| 2026-05-06 04:24 | 36.47944 | -121.62509 | 4600 ft | 207 kts | 317° |
| 2026-05-06 04:24 | 36.49047 | -121.63688 | 4602 ft | 209 kts | 324° |
| 2026-05-06 04:24 | 36.50211 | -121.64774 | 4600 ft | 209 kts | 325° |
| 2026-05-06 04:24 | 36.51389 | -121.65844 | 4606 ft | 210 kts | 324° |
| 2026-05-06 04:25 | 36.52446 | -121.67101 | 4605 ft | 211 kts | 311° |
| 2026-05-06 04:25 | 36.53359 | -121.68535 | 4608 ft | 211 kts | 309° |
| 2026-05-06 04:25 | 36.54157 | -121.70064 | 4607 ft | 213 kts | 293° |
| 2026-05-06 04:25 | 36.54523 | -121.71858 | 4119 ft | 216 kts | 285° |
| 2026-05-06 04:26 | 36.54938 | -121.73635 | 3484 ft | 210 kts | 292° |
| 2026-05-06 04:26 | 36.55290 | -121.74735 | 3152 ft | 203 kts | 294° |
| 2026-05-06 04:26 | 36.55838 | -121.76320 | 2652 ft | 197 kts | 293° |
| 2026-05-06 04:26 | 36.56368 | -121.77858 | 2139 ft | 188 kts | 293° |
| 2026-05-06 04:27 | 36.56897 | -121.79311 | 1631 ft | 179 kts | 297° |
| 2026-05-06 04:27 | 36.57429 | -121.80688 | 1042 ft | 182 kts | 292° |
| 2026-05-06 04:27 | 36.57906 | -121.82135 | 611 ft | 183 kts | 292° |
| 2026-05-06 04:27 | 36.58404 | -121.83574 | 300 ft | 177 kts | 291° |
| 2026-05-06 04:28 | 36.58728 | -121.84520 | 213 ft | 5 kts | 288° |
| 2026-05-06 04:28 | 36.58735 | -121.84546 | 221 ft | 13 kts | 255° |
| 2026-05-06 04:28 | 36.58703 | -121.84597 | 218 ft | 0 kts | 214° |